createdAt,value
2022-09-09T00:00:19.776Z,17.66
2022-09-09T00:03:36.138Z,17.62
2022-09-09T00:06:29.525Z,17.60
2022-09-09T00:09:19.487Z,17.56
2022-09-09T00:12:13.719Z,17.54
2022-09-09T00:15:08.894Z,17.50
2022-09-09T00:18:04.542Z,17.48
2022-09-09T00:20:59.459Z,17.42
2022-09-09T00:23:51.976Z,17.41
2022-09-09T00:26:47.051Z,17.38
2022-09-09T00:29:44.611Z,17.35
2022-09-09T00:32:36.589Z,17.32
2022-09-09T00:35:26.234Z,17.29
2022-09-09T00:38:18.561Z,17.25
2022-09-09T00:41:15.405Z,17.21
2022-09-09T00:44:19.318Z,17.19
2022-09-09T00:47:20.561Z,17.15
2022-09-09T00:50:27.543Z,17.13
2022-09-09T00:53:29.720Z,17.11
2022-09-09T00:56:22.169Z,17.07
2022-09-09T00:59:28.511Z,17.05
2022-09-09T01:02:28.536Z,17.03
2022-09-09T01:05:28.458Z,16.99
2022-09-09T01:08:34.762Z,16.97
2022-09-09T01:11:26.618Z,16.94
2022-09-09T01:14:28.722Z,16.92
2022-09-09T01:17:23.763Z,16.90
2022-09-09T01:20:28.718Z,16.87
2022-09-09T01:23:43.319Z,16.85
2022-09-09T01:26:47.593Z,16.82
2022-09-09T01:29:47.248Z,16.79
2022-09-09T01:32:46.249Z,16.78
2022-09-09T01:35:43.553Z,16.76
2022-09-09T01:38:34.728Z,16.75
2022-09-09T01:41:24.529Z,16.73
2022-09-09T01:44:22.969Z,16.70
2022-09-09T01:47:11.931Z,16.68
2022-09-09T01:50:23.008Z,16.63
2022-09-09T01:53:13.155Z,16.61
2022-09-09T01:56:12.805Z,16.60
2022-09-09T01:59:18.968Z,16.59
2022-09-09T02:02:18.599Z,16.57
2022-09-09T02:05:25.358Z,16.56
2022-09-09T02:08:20.854Z,16.54
2022-09-09T02:11:16.838Z,16.54
2022-09-09T02:14:13.528Z,16.53
2022-09-09T02:17:10.487Z,16.52
2022-09-09T02:20:19.717Z,16.51
2022-09-09T02:23:17.895Z,16.49
2022-09-09T02:26:08.698Z,16.47
2022-09-09T02:29:02.100Z,16.45
2022-09-09T02:31:52.365Z,16.40
2022-09-09T02:34:46.636Z,16.35
2022-09-09T02:37:37.022Z,16.30
2022-09-09T02:40:26.346Z,16.27
2022-09-09T02:43:22.730Z,16.25
2022-09-09T02:46:27.254Z,16.23
2022-09-09T02:49:24.761Z,16.21
2022-09-09T02:52:17.114Z,16.19
2022-09-09T02:55:13.460Z,16.18
2022-09-09T02:58:05.005Z,16.19
2022-09-09T03:00:54.663Z,16.17
2022-09-09T03:03:44.978Z,16.16
2022-09-09T03:06:36.395Z,16.15
2022-09-09T03:09:33.755Z,16.14
2022-09-09T03:12:22.716Z,16.13
2022-09-09T03:15:12.090Z,16.10
2022-09-09T03:18:01.654Z,16.08
2022-09-09T03:20:51.847Z,16.06
2022-09-09T03:23:41.067Z,16.02
2022-09-09T03:26:31.194Z,15.99
2022-09-09T03:29:21.181Z,15.95
2022-09-09T03:32:11.368Z,15.94
2022-09-09T03:35:00.752Z,15.92
2022-09-09T03:37:50.318Z,15.92
2022-09-09T03:40:39.886Z,15.92
2022-09-09T03:43:29.467Z,15.91
2022-09-09T03:46:18.711Z,15.91
2022-09-09T03:49:07.584Z,15.90
2022-09-09T03:51:56.956Z,15.90
2022-09-09T03:54:46.119Z,15.89
2022-09-09T03:57:36.359Z,15.88
2022-09-09T04:00:25.676Z,15.86
2022-09-09T04:03:14.432Z,15.86
2022-09-09T04:06:05.208Z,15.85
2022-09-09T04:08:56.038Z,15.86
2022-09-09T04:11:46.023Z,15.86
2022-09-09T04:14:35.608Z,15.87
2022-09-09T04:17:25.375Z,15.89
2022-09-09T04:20:14.134Z,15.90
2022-09-09T04:23:02.886Z,15.92
2022-09-09T04:25:53.278Z,15.93
2022-09-09T04:28:42.239Z,15.94
2022-09-09T04:31:42.231Z,15.95
2022-09-09T04:34:32.036Z,15.96
2022-09-09T04:37:20.997Z,15.98
2022-09-09T04:40:12.059Z,16.01
2022-09-09T04:43:04.037Z,16.03
2022-09-09T04:45:54.280Z,16.04
2022-09-09T04:48:45.961Z,16.08
2022-09-09T04:51:34.810Z,16.12
2022-09-09T04:54:23.386Z,16.16
2022-09-09T04:57:18.486Z,16.21
2022-09-09T05:00:11.493Z,16.27
2022-09-09T05:03:09.262Z,16.33
2022-09-09T05:06:05.114Z,16.39
2022-09-09T05:08:54.533Z,16.45
2022-09-09T05:11:46.814Z,16.53
2022-09-09T05:14:58.709Z,16.62
2022-09-09T05:17:47.670Z,16.69
2022-09-09T05:20:37.452Z,16.77
2022-09-09T05:23:26.615Z,16.84
2022-09-09T05:26:18.233Z,16.92
2022-09-09T05:29:08.836Z,17.01
2022-09-09T05:31:57.689Z,17.11
2022-09-09T05:34:47.366Z,17.18
2022-09-09T05:37:36.944Z,17.28
2022-09-09T05:40:27.134Z,17.35
2022-09-09T05:43:15.889Z,17.45
2022-09-09T05:46:09.298Z,17.56
2022-09-09T05:48:58.937Z,17.66
2022-09-09T05:51:51.369Z,17.76
2022-09-09T05:54:42.183Z,17.87
2022-09-09T05:57:30.723Z,17.97
2022-09-09T06:00:22.348Z,18.09
2022-09-09T06:03:14.059Z,18.22
2022-09-09T06:06:06.210Z,18.32
2022-09-09T06:08:54.958Z,18.43
2022-09-09T06:11:44.333Z,18.54
2022-09-09T06:14:33.700Z,18.68
2022-09-09T06:17:22.864Z,18.80
2022-09-09T06:20:14.096Z,18.94
2022-09-09T06:23:04.450Z,19.10
2022-09-09T06:26:01.348Z,19.23
2022-09-09T06:28:53.366Z,19.39
2022-09-09T06:31:42.463Z,19.52
2022-09-09T06:34:50.007Z,19.67
2022-09-09T06:37:39.787Z,19.81
2022-09-09T06:40:28.744Z,19.92
2022-09-09T06:43:19.263Z,20.05
2022-09-09T06:46:13.675Z,20.18
2022-09-09T06:49:03.002Z,20.32
2022-09-09T06:51:54.164Z,20.44
2022-09-09T06:54:44.809Z,20.58
2022-09-09T06:57:37.334Z,20.73
2022-09-09T07:00:30.963Z,20.87
2022-09-09T07:03:21.112Z,21.00
2022-09-09T07:06:15.359Z,21.14
2022-09-09T07:09:07.613Z,21.25
2022-09-09T07:12:00.239Z,21.40
2022-09-09T07:14:51.081Z,21.54
2022-09-09T07:17:40.450Z,21.68
2022-09-09T07:20:29.618Z,21.82
2022-09-09T07:23:18.373Z,21.96
2022-09-09T07:26:12.862Z,22.12
2022-09-09T07:29:02.678Z,22.29
2022-09-09T07:31:52.221Z,22.44
2022-09-09T07:34:46.501Z,22.56
2022-09-09T07:37:37.065Z,22.71
2022-09-09T07:40:25.857Z,22.87
2022-09-09T07:43:17.482Z,23.05
2022-09-09T07:46:07.725Z,23.20
2022-09-09T07:48:58.674Z,23.33
2022-09-09T07:51:50.505Z,23.49
2022-09-09T07:54:40.485Z,23.63
2022-09-09T07:57:31.290Z,23.78
2022-09-09T08:00:22.262Z,23.92
2022-09-09T08:03:12.944Z,24.09
2022-09-09T08:06:04.108Z,24.26
2022-09-09T08:08:55.470Z,24.43
2022-09-09T08:11:45.100Z,24.61
2022-09-09T08:14:34.265Z,24.81
2022-09-09T08:17:23.842Z,25.01
2022-09-09T08:20:14.237Z,25.20
2022-09-09T08:23:05.444Z,25.36
2022-09-09T08:25:54.202Z,25.52
2022-09-09T08:28:43.778Z,25.67
2022-09-09T08:31:35.195Z,25.81
2022-09-09T08:34:23.128Z,25.98
2022-09-09T08:37:15.164Z,26.14
2022-09-09T08:40:19.610Z,26.28
2022-09-09T08:43:09.059Z,26.42
2022-09-09T08:46:05.832Z,26.58
2022-09-09T08:49:02.603Z,26.71
2022-09-09T08:51:52.530Z,26.86
2022-09-09T08:54:52.138Z,27.00
2022-09-09T08:57:44.807Z,27.13
2022-09-09T09:00:43.538Z,27.27
2022-09-09T09:03:42.575Z,27.41
2022-09-09T09:06:45.436Z,27.51
2022-09-09T09:09:44.043Z,27.62
2022-09-09T09:12:39.976Z,27.70
2022-09-09T09:15:37.125Z,27.78
2022-09-09T09:18:27.922Z,27.91
2022-09-09T09:21:24.157Z,28.04
2022-09-09T09:24:21.981Z,28.15
2022-09-09T09:27:15.450Z,28.28
2022-09-09T09:30:29.915Z,28.38
2022-09-09T09:33:27.964Z,28.49
2022-09-09T09:36:17.590Z,28.59
2022-09-09T09:42:23.133Z,28.83
2022-09-09T09:45:22.575Z,28.96
2022-09-09T09:48:14.551Z,29.08
2022-09-09T09:51:11.136Z,29.17
2022-09-09T09:54:24.466Z,29.24
2022-09-09T09:57:18.114Z,29.32
2022-09-09T10:00:17.874Z,29.38
2022-09-09T10:03:25.556Z,29.46
2022-09-09T10:06:15.740Z,29.54
2022-09-09T10:09:24.024Z,29.60
2022-09-09T10:12:26.839Z,29.64
2022-09-09T10:15:39.983Z,29.63
2022-09-09T10:18:47.172Z,29.66
2022-09-09T10:21:58.434Z,29.69
2022-09-09T10:25:22.622Z,29.73
2022-09-09T10:28:31.801Z,29.78
2022-09-09T10:31:29.278Z,29.82
2022-09-09T10:34:32.510Z,29.86
2022-09-09T10:37:36.013Z,29.90
2022-09-09T10:40:32.757Z,29.94
2022-09-09T10:43:47.523Z,29.97
2022-09-09T10:46:47.546Z,29.98
2022-09-09T10:50:00.255Z,29.95
2022-09-09T10:53:02.123Z,29.98
2022-09-09T10:55:57.841Z,30.02
2022-09-09T10:58:50.191Z,30.07
2022-09-09T11:01:45.667Z,30.12
2022-09-09T11:04:41.317Z,30.17
2022-09-09T11:07:38.649Z,30.21
2022-09-09T11:10:35.750Z,30.24
2022-09-09T11:13:32.133Z,30.29
2022-09-09T11:16:28.214Z,30.36
2022-09-09T11:19:24.205Z,30.40
2022-09-09T11:22:26.886Z,30.46
2022-09-09T11:25:20.986Z,30.51
2022-09-09T11:28:42.084Z,30.56
2022-09-09T11:31:46.035Z,30.65
2022-09-09T11:34:50.108Z,30.69
2022-09-09T11:38:18.555Z,30.74
2022-09-09T11:41:10.564Z,30.79
2022-09-09T11:43:59.380Z,30.84
2022-09-09T11:46:52.530Z,30.88
2022-09-09T11:49:46.255Z,30.92
2022-09-09T11:52:42.769Z,30.96
2022-09-09T11:55:34.050Z,31.00
2022-09-09T11:58:24.866Z,31.03
2022-09-09T12:01:28.162Z,31.05
2022-09-09T12:04:33.806Z,31.08
2022-09-09T12:07:32.244Z,31.10
2022-09-09T12:10:28.389Z,31.13
2022-09-09T12:13:23.334Z,31.15
2022-09-09T12:16:32.042Z,31.15
2022-09-09T12:19:26.445Z,31.16
2022-09-09T12:22:29.070Z,31.14
2022-09-09T12:25:31.344Z,31.17
2022-09-09T12:28:23.249Z,31.22
2022-09-09T12:31:18.398Z,31.25
2022-09-09T12:34:16.429Z,31.30
2022-09-09T12:37:14.884Z,31.35
2022-09-09T12:40:06.947Z,31.38
2022-09-09T12:42:55.876Z,31.39
2022-09-09T12:45:45.898Z,31.39
2022-09-09T12:48:38.345Z,31.36
2022-09-09T12:51:30.713Z,31.30
2022-09-09T12:54:20.340Z,31.26
2022-09-09T12:57:14.959Z,31.26
2022-09-09T13:00:15.235Z,31.24
2022-09-09T13:03:17.303Z,31.25
2022-09-09T13:06:20.212Z,31.24
2022-09-09T13:09:12.285Z,31.27
2022-09-09T13:12:07.942Z,31.25
2022-09-09T13:14:58.134Z,31.20
2022-09-09T13:17:50.653Z,31.17
2022-09-09T13:20:46.908Z,31.13
2022-09-09T13:23:38.493Z,31.08
2022-09-09T13:26:29.863Z,31.03
2022-09-09T13:29:20.344Z,31.02
2022-09-09T13:32:18.431Z,30.96
2022-09-09T13:35:25.706Z,30.89
2022-09-09T13:38:17.283Z,30.80
2022-09-09T13:41:07.869Z,30.76
2022-09-09T13:43:58.115Z,30.72
2022-09-09T13:46:48.302Z,30.68
2022-09-09T13:49:36.855Z,30.61
2022-09-09T13:52:31.986Z,30.54
2022-09-09T13:55:22.904Z,30.52
2022-09-09T13:58:19.504Z,30.47
2022-09-09T14:01:08.703Z,30.38
2022-09-09T14:03:59.475Z,30.34
2022-09-09T14:06:49.457Z,30.26
2022-09-09T14:09:38.623Z,30.22
2022-09-09T14:12:27.994Z,30.16
2022-09-09T14:15:18.595Z,30.04
2022-09-09T14:18:10.348Z,29.85
2022-09-09T14:20:59.263Z,29.75
2022-09-09T14:23:51.615Z,29.66
2022-09-09T14:26:41.398Z,29.57
2022-09-09T14:29:30.768Z,29.47
2022-09-09T14:32:20.162Z,29.39
2022-09-09T14:35:12.372Z,29.24
2022-09-09T14:38:01.541Z,29.11
2022-09-09T14:40:50.704Z,28.94
2022-09-09T14:43:41.319Z,28.77
2022-09-09T14:46:30.190Z,28.63
2022-09-09T14:49:19.426Z,28.50
2022-09-09T14:52:09.412Z,28.37
2022-09-09T14:54:58.780Z,28.25
2022-09-09T14:57:47.337Z,28.11
2022-09-09T15:00:36.877Z,28.02
2022-09-09T15:03:26.686Z,27.95
2022-09-09T15:06:16.259Z,27.88
2022-09-09T15:09:05.013Z,27.82
2022-09-09T15:11:55.507Z,27.77
2022-09-09T15:14:43.462Z,27.72
2022-09-09T15:17:32.918Z,27.60
2022-09-09T15:20:21.472Z,27.51
2022-09-09T15:23:11.661Z,27.47
2022-09-09T15:26:00.003Z,27.46
2022-09-09T15:28:50.323Z,27.37
2022-09-09T15:34:40.813Z,27.26
2022-09-09T15:37:29.736Z,27.19
2022-09-09T15:40:18.586Z,27.16
2022-09-09T15:43:08.102Z,27.12
2022-09-09T15:46:06.937Z,27.09
2022-09-09T15:48:57.224Z,27.06
2022-09-09T15:51:47.598Z,27.03
2022-09-09T15:54:39.267Z,26.97
2022-09-09T15:57:28.729Z,26.90
2022-09-09T16:00:18.863Z,26.80
2022-09-09T16:03:08.025Z,26.73
2022-09-09T16:05:56.985Z,26.68
2022-09-09T16:08:47.789Z,26.64
2022-09-09T16:11:38.595Z,26.59
2022-09-09T16:14:28.170Z,26.56
2022-09-09T16:17:17.331Z,26.55
2022-09-09T16:20:09.307Z,26.53
2022-09-09T16:22:57.916Z,26.50
2022-09-09T16:25:53.839Z,26.47
2022-09-09T16:28:44.234Z,26.45
2022-09-09T16:31:34.492Z,26.43
2022-09-09T16:34:23.999Z,26.41
2022-09-09T16:37:12.545Z,26.36
2022-09-09T16:40:01.123Z,26.29
2022-09-09T16:42:49.443Z,26.21
2022-09-09T16:45:45.568Z,26.17
2022-09-09T16:48:34.808Z,26.11
2022-09-09T16:51:24.496Z,26.06
2022-09-09T16:54:14.500Z,26.01
2022-09-09T16:57:02.964Z,25.95
2022-09-09T16:59:54.519Z,25.90
2022-09-09T17:02:43.665Z,25.85
2022-09-09T17:05:33.378Z,25.82
2022-09-09T17:08:21.961Z,25.79
2022-09-09T17:11:15.638Z,25.74
2022-09-09T17:14:04.391Z,25.70
2022-09-09T17:16:53.350Z,25.68
2022-09-09T17:19:43.128Z,25.66
2022-09-09T17:22:33.315Z,25.63
2022-09-09T17:25:23.096Z,25.59
2022-09-09T17:28:12.880Z,25.54
2022-09-09T17:31:03.321Z,25.49
2022-09-09T17:33:53.643Z,25.45
2022-09-09T17:36:42.215Z,25.41
2022-09-09T17:39:30.969Z,25.36
2022-09-09T17:42:19.728Z,25.32
2022-09-09T17:45:09.301Z,25.26
2022-09-09T17:47:58.262Z,25.24
2022-09-09T17:50:47.019Z,25.21
2022-09-09T17:53:39.661Z,25.19
2022-09-09T17:56:30.974Z,25.16
2022-09-09T17:59:21.065Z,25.13
2022-09-09T18:02:12.371Z,25.08
2022-09-09T18:05:02.089Z,25.05
2022-09-09T18:07:52.988Z,25.02
2022-09-09T18:10:43.700Z,24.99
2022-09-09T18:13:32.910Z,24.97
2022-09-09T18:16:22.472Z,24.93
2022-09-09T18:19:13.461Z,24.89
2022-09-09T18:22:04.421Z,24.86
2022-09-09T18:24:54.610Z,24.85
2022-09-09T18:27:43.781Z,24.80
2022-09-09T18:30:32.528Z,24.75
2022-09-09T18:33:20.875Z,24.72
2022-09-09T18:36:12.172Z,24.66
2022-09-09T18:39:02.919Z,24.60
2022-09-09T18:41:53.335Z,24.58
2022-09-09T18:44:42.784Z,24.54
2022-09-09T18:47:31.613Z,24.51
2022-09-09T18:50:19.956Z,24.46
2022-09-09T18:53:09.944Z,24.35
2022-09-09T18:56:03.820Z,24.27
2022-09-09T18:58:55.614Z,24.23
2022-09-09T19:01:45.041Z,24.23
2022-09-09T19:04:34.180Z,24.22
2022-09-09T19:07:22.730Z,24.19
2022-09-09T19:10:11.894Z,24.19
2022-09-09T19:13:00.855Z,24.17
2022-09-09T19:15:50.060Z,24.14
2022-09-09T19:18:39.185Z,24.13
2022-09-09T19:21:33.883Z,24.11
2022-09-09T19:24:24.527Z,24.10
2022-09-09T19:27:13.092Z,24.07
2022-09-09T19:30:02.400Z,24.05
2022-09-09T19:32:54.087Z,24.02
2022-09-09T19:35:42.572Z,24.00
2022-09-09T19:38:32.147Z,23.95
2022-09-09T19:41:24.561Z,23.90
2022-09-09T19:44:15.548Z,23.85
2022-09-09T19:47:04.556Z,23.80
2022-09-09T19:49:53.312Z,23.77
2022-09-09T19:52:41.664Z,23.73
2022-09-09T19:55:30.520Z,23.71
2022-09-09T19:58:19.912Z,23.70
2022-09-09T20:01:10.799Z,23.68
2022-09-09T20:04:02.369Z,23.64
2022-09-09T20:06:51.783Z,23.61
2022-09-09T20:09:40.127Z,23.58
2022-09-09T20:12:28.063Z,23.55
2022-09-09T20:15:16.633Z,23.53
2022-09-09T20:18:06.191Z,23.51
2022-09-09T20:21:00.068Z,23.48
2022-09-09T20:23:50.467Z,23.44
2022-09-09T20:26:40.362Z,23.40
2022-09-09T20:29:30.428Z,23.38
2022-09-09T20:32:19.389Z,23.35
2022-09-09T20:35:09.781Z,23.32
2022-09-09T20:38:00.174Z,23.27
2022-09-09T20:40:50.159Z,23.26
2022-09-09T20:43:38.709Z,23.23
2022-09-09T20:46:31.117Z,23.19
2022-09-09T20:49:21.339Z,23.17
2022-09-09T20:52:11.293Z,23.14
2022-09-09T20:55:00.285Z,23.09
2022-09-09T20:57:49.448Z,23.06
2022-09-09T21:00:38.204Z,23.03
2022-09-09T21:03:29.808Z,22.99
2022-09-09T21:06:18.177Z,22.95
2022-09-09T21:09:10.801Z,22.93
2022-09-09T21:11:59.573Z,22.89
2022-09-09T21:14:47.924Z,22.84
2022-09-09T21:17:37.086Z,22.81
2022-09-09T21:20:26.046Z,22.76
2022-09-09T21:23:16.540Z,22.71
2022-09-09T21:26:07.242Z,22.67
2022-09-09T21:28:56.407Z,22.64
2022-09-09T21:31:45.211Z,22.59
2022-09-09T21:34:35.352Z,22.54
2022-09-09T21:37:23.699Z,22.49
2022-09-09T21:40:13.102Z,22.44
2022-09-09T21:43:03.628Z,22.39
2022-09-09T21:45:53.238Z,22.34
2022-09-09T21:48:42.208Z,22.27
2022-09-09T21:51:31.569Z,22.23
2022-09-09T21:54:20.325Z,22.17
2022-09-09T21:57:09.490Z,22.12
2022-09-09T21:59:58.454Z,22.07
2022-09-09T22:02:47.242Z,22.03
2022-09-09T22:05:41.382Z,21.98
2022-09-09T22:08:30.740Z,21.94
2022-09-09T22:11:21.855Z,21.91
2022-09-09T22:14:10.421Z,21.88
2022-09-09T22:16:59.378Z,21.85
2022-09-09T22:19:48.142Z,21.81
2022-09-09T22:22:37.504Z,21.78
2022-09-09T22:25:26.053Z,21.75
2022-09-09T22:28:16.040Z,21.72
2022-09-09T22:31:06.329Z,21.68
2022-09-09T22:33:55.597Z,21.62
2022-09-09T22:36:44.363Z,21.59
2022-09-09T22:39:33.363Z,21.55
2022-09-09T22:42:22.200Z,21.51
2022-09-09T22:45:12.465Z,21.45
2022-09-09T22:48:01.421Z,21.40
2022-09-09T22:50:51.004Z,21.38
2022-09-09T22:53:41.824Z,21.33
2022-09-09T22:56:31.175Z,21.27
2022-09-09T22:59:20.536Z,21.21
2022-09-09T23:02:09.705Z,21.17
2022-09-09T23:04:59.076Z,21.14
2022-09-09T23:07:47.830Z,21.08
2022-09-09T23:10:42.663Z,21.04
2022-09-09T23:13:32.670Z,20.99
2022-09-09T23:16:24.343Z,20.93
2022-09-09T23:19:16.127Z,20.87
2022-09-09T23:22:06.467Z,20.82
2022-09-09T23:24:55.309Z,20.69
2022-09-09T23:27:43.661Z,20.58
2022-09-09T23:30:32.825Z,20.55
2022-09-09T23:33:21.117Z,20.50
2022-09-09T23:36:14.051Z,20.42
2022-09-09T23:39:04.410Z,20.38
2022-09-09T23:41:53.171Z,20.35
2022-09-09T23:44:42.535Z,20.33
2022-09-09T23:47:30.880Z,20.29
2022-09-09T23:50:20.663Z,20.26
2022-09-09T23:53:10.443Z,20.22
2022-09-09T23:55:58.777Z,20.19
2022-09-09T23:58:48.155Z,20.16
